Airfield :
LOGIN :

Register | Disclaimer

   EN    FR    IT 

 










Legend :    VFR   Marginal VFR   IFR   Intensive IFR   Very Intensive IFR
Visi :
Ceiling :
>= 8 km
>= 3000ft
5 to 8 km
1000 to 3000 ft
1500m to 5 km
500 to 1000 ft
800 to 1500m
200 to 500 ft
< 800m
< 200 ft
Symbols :   Thunderstorms  Fog  Heavy snow  Heavy precipitations  Wind > 20 kt
SIGMETs :     Misc.  Thunderstorms  Icing  Turbulence  Mountain Waves  Volcanic Ashes







- Airport Elevation : 1470 ft
- IATA code : KLU


LOWK - Klagenfurt

CURRENT METAR :
  • 220020Z AUTO 29004KT 9999 FEW160 OVC210 18/15 Q1016

EXPIRED METARs :
  • 212350Z AUTO 30005KT 9999 FEW160 BKN220 18/16 Q1016
  • 212320Z AUTO 29005KT 9999 FEW150 BKN220 18/16 Q1016
  • 212250Z AUTO 30006KT 9999 FEW120 SCT160 BKN200 19/16 Q1016
  • 212220Z AUTO 31006KT 9999 FEW150 BKN220 19/16 Q1016
  • 212150Z AUTO 29005KT 250V320 9999 FEW060 SCT160 19/16 Q1016

TAF TAF LOWK
Valid from the 22 at 00:00 until the 23 at 00:00 UTC


212315Z 2200/2224 VRB02KT CAVOK TX30/2215Z TN20/2204Z
BECMG 2207/2209 9999 FEW070
BECMG 2210/2213 FEW060 FEW060CB SCT300
TEMPO 2214/2220 VRB12G25KT VCTS
BECMG 2221/2224 CAVOK
No reported NOTAMs for that airfield.



MET'MAP, your aeronautical weather chart ! - Copyright ORBIFLY December 2007 - Disclaimer

ORBIFLY MET'MAP TEAM :

Programming & Development : Alexandra Zaïnal
Concept & Development : Baudouin d'Aumeries
Co-Development & Prog : Marc-Olivier Méhu
Technical & hardware support : Manuel Goepfert

Contact : metmap@orbifly.com




SOURCES & CREDITS :

   NOAA